sensor_id;sensor_type;location;lat;lon;timestamp;temperature;humidity
429;DHT22;201;48.758;9.290;2024-01-16T00:00:32;-1.00;1.00
429;DHT22;201;48.758;9.290;2024-01-16T00:02:57;-1.00;1.00
429;DHT22;201;48.758;9.290;2024-01-16T00:05:23;-1.00;1.00
429;DHT22;201;48.758;9.290;2024-01-16T00:07:49;-1.00;1.00
429;DHT22;201;48.758;9.290;2024-01-16T00:10:14;-1.00;1.00
429;DHT22;201;48.758;9.290;2024-01-16T00:12:41;-1.10;1.00
429;DHT22;201;48.758;9.290;2024-01-16T00:15:07;-1.00;1.00
429;DHT22;201;48.758;9.290;2024-01-16T00:17:32;-1.10;1.00
429;DHT22;201;48.758;9.290;2024-01-16T00:19:58;-1.10;1.00
429;DHT22;201;48.758;9.290;2024-01-16T00:22:27;-1.20;1.00
429;DHT22;201;48.758;9.290;2024-01-16T00:24:53;-1.20;1.00
429;DHT22;201;48.758;9.290;2024-01-16T00:27:18;-1.20;1.00
429;DHT22;201;48.758;9.290;2024-01-16T00:29:44;-1.20;1.00
429;DHT22;201;48.758;9.290;2024-01-16T00:32:09;-1.20;1.00
429;DHT22;201;48.758;9.290;2024-01-16T00:34:35;-1.20;1.00
429;DHT22;201;48.758;9.290;2024-01-16T00:37:00;-1.20;1.00
429;DHT22;201;48.758;9.290;2024-01-16T00:39:26;-1.20;1.00
429;DHT22;201;48.758;9.290;2024-01-16T00:41:51;-1.20;1.00
429;DHT22;201;48.758;9.290;2024-01-16T00:44:17;-1.10;1.00
429;DHT22;201;48.758;9.290;2024-01-16T00:46:42;-1.20;1.00
429;DHT22;201;48.758;9.290;2024-01-16T00:49:08;-1.20;1.00
429;DHT22;201;48.758;9.290;2024-01-16T00:51:33;-1.20;1.00
429;DHT22;201;48.758;9.290;2024-01-16T00:53:59;-1.10;1.00
429;DHT22;201;48.758;9.290;2024-01-16T00:56:24;-1.10;1.00
429;DHT22;201;48.758;9.290;2024-01-16T00:58:53;-1.20;1.00
429;DHT22;201;48.758;9.290;2024-01-16T01:01:19;-1.20;1.00
429;DHT22;201;48.758;9.290;2024-01-16T01:03:45;-1.30;1.00
429;DHT22;201;48.758;9.290;2024-01-16T01:06:11;-1.20;1.00
429;DHT22;201;48.758;9.290;2024-01-16T01:08:37;-1.30;1.00
429;DHT22;201;48.758;9.290;2024-01-16T01:11:02;-1.20;1.00
429;DHT22;201;48.758;9.290;2024-01-16T01:13:28;-1.20;1.00
429;DHT22;201;48.758;9.290;2024-01-16T01:15:53;-1.20;1.00
429;DHT22;201;48.758;9.290;2024-01-16T01:18:19;-1.10;1.00
429;DHT22;201;48.758;9.290;2024-01-16T01:20:45;-1.10;1.00
429;DHT22;201;48.758;9.290;2024-01-16T01:23:10;-1.10;1.00
429;DHT22;201;48.758;9.290;2024-01-16T01:25:36;-1.00;1.00
429;DHT22;201;48.758;9.290;2024-01-16T01:28:02;-1.00;1.00
429;DHT22;201;48.758;9.290;2024-01-16T01:30:27;-1.00;1.00
429;DHT22;201;48.758;9.290;2024-01-16T01:32:53;-0.90;1.00
429;DHT22;201;48.758;9.290;2024-01-16T01:35:18;-0.90;1.00
429;DHT22;201;48.758;9.290;2024-01-16T01:37:47;-0.80;1.00
429;DHT22;201;48.758;9.290;2024-01-16T01:40:12;-0.80;1.00
429;DHT22;201;48.758;9.290;2024-01-16T01:42:41;-0.80;1.00
429;DHT22;201;48.758;9.290;2024-01-16T01:45:10;-0.80;1.00
429;DHT22;201;48.758;9.290;2024-01-16T01:47:37;-0.80;1.00
429;DHT22;201;48.758;9.290;2024-01-16T01:50:03;-0.80;1.00
429;DHT22;201;48.758;9.290;2024-01-16T01:52:30;-0.80;1.00
429;DHT22;201;48.758;9.290;2024-01-16T01:54:57;-0.70;1.00
429;DHT22;201;48.758;9.290;2024-01-16T01:57:23;-0.80;1.00
429;DHT22;201;48.758;9.290;2024-01-16T01:59:49;-0.80;1.00
429;DHT22;201;48.758;9.290;2024-01-16T02:02:14;-0.70;1.00
429;DHT22;201;48.758;9.290;2024-01-16T02:04:41;-0.70;1.00
429;DHT22;201;48.758;9.290;2024-01-16T02:07:07;-0.70;1.00
429;DHT22;201;48.758;9.290;2024-01-16T02:09:33;-0.70;1.00
429;DHT22;201;48.758;9.290;2024-01-16T02:12:00;-0.70;1.00
429;DHT22;201;48.758;9.290;2024-01-16T02:14:25;-0.70;1.00
429;DHT22;201;48.758;9.290;2024-01-16T02:16:51;-0.70;1.00
429;DHT22;201;48.758;9.290;2024-01-16T02:19:16;-0.70;1.00
429;DHT22;201;48.758;9.290;2024-01-16T02:21:46;-0.70;1.00
429;DHT22;201;48.758;9.290;2024-01-16T02:24:14;-0.80;1.00
429;DHT22;201;48.758;9.290;2024-01-16T02:26:40;-0.90;1.00
429;DHT22;201;48.758;9.290;2024-01-16T02:29:06;-1.00;1.00
429;DHT22;201;48.758;9.290;2024-01-16T02:31:32;-1.10;1.00
429;DHT22;201;48.758;9.290;2024-01-16T02:33:58;-1.10;1.00
429;DHT22;201;48.758;9.290;2024-01-16T02:36:24;-1.10;1.00
429;DHT22;201;48.758;9.290;2024-01-16T02:38:50;-1.20;1.00
429;DHT22;201;48.758;9.290;2024-01-16T02:41:16;-1.30;1.00
429;DHT22;201;48.758;9.290;2024-01-16T02:43:42;-1.40;1.00
429;DHT22;201;48.758;9.290;2024-01-16T02:46:07;-1.50;1.00
429;DHT22;201;48.758;9.290;2024-01-16T02:48:37;-1.50;1.00
429;DHT22;201;48.758;9.290;2024-01-16T02:51:03;-1.60;1.00
429;DHT22;201;48.758;9.290;2024-01-16T02:53:29;-1.60;1.00
429;DHT22;201;48.758;9.290;2024-01-16T02:55:55;-1.60;1.00
429;DHT22;201;48.758;9.290;2024-01-16T02:58:24;-1.60;1.00
429;DHT22;201;48.758;9.290;2024-01-16T03:00:50;-1.60;1.00
429;DHT22;201;48.758;9.290;2024-01-16T03:03:16;-1.60;1.00
429;DHT22;201;48.758;9.290;2024-01-16T03:05:42;-1.70;1.00
429;DHT22;201;48.758;9.290;2024-01-16T03:08:07;-1.70;1.00
429;DHT22;201;48.758;9.290;2024-01-16T03:10:33;-1.70;1.00
429;DHT22;201;48.758;9.290;2024-01-16T03:12:58;-1.80;1.00
429;DHT22;201;48.758;9.290;2024-01-16T03:15:24;-1.70;1.00
429;DHT22;201;48.758;9.290;2024-01-16T03:17:50;-1.70;1.00
429;DHT22;201;48.758;9.290;2024-01-16T03:20:17;-1.70;1.00
429;DHT22;201;48.758;9.290;2024-01-16T03:22:43;-1.70;1.00
429;DHT22;201;48.758;9.290;2024-01-16T03:25:10;-1.70;1.00
429;DHT22;201;48.758;9.290;2024-01-16T03:27:37;-1.70;1.00
429;DHT22;201;48.758;9.290;2024-01-16T03:30:03;-1.80;1.00
429;DHT22;201;48.758;9.290;2024-01-16T03:32:28;-1.90;1.00
429;DHT22;201;48.758;9.290;2024-01-16T03:34:54;-1.90;1.00
429;DHT22;201;48.758;9.290;2024-01-16T03:37:20;-2.00;1.00
429;DHT22;201;48.758;9.290;2024-01-16T03:39:45;-1.90;1.00
429;DHT22;201;48.758;9.290;2024-01-16T03:42:11;-2.00;1.00
429;DHT22;201;48.758;9.290;2024-01-16T03:44:40;-2.00;1.00
429;DHT22;201;48.758;9.290;2024-01-16T03:47:06;-2.00;1.00
429;DHT22;201;48.758;9.290;2024-01-16T03:49:32;-2.00;1.00
429;DHT22;201;48.758;9.290;2024-01-16T03:51:57;-2.10;1.00
429;DHT22;201;48.758;9.290;2024-01-16T03:54:23;-2.20;1.00
429;DHT22;201;48.758;9.290;2024-01-16T03:56:48;-2.20;1.00
429;DHT22;201;48.758;9.290;2024-01-16T03:59:14;-2.30;1.00
429;DHT22;201;48.758;9.290;2024-01-16T04:01:39;-2.50;1.00
429;DHT22;201;48.758;9.290;2024-01-16T04:04:06;-2.50;1.00
429;DHT22;201;48.758;9.290;2024-01-16T04:06:32;-2.40;1.00
429;DHT22;201;48.758;9.290;2024-01-16T04:08:58;-2.50;1.00
429;DHT22;201;48.758;9.290;2024-01-16T04:11:23;-2.50;1.00
429;DHT22;201;48.758;9.290;2024-01-16T04:13:49;-2.50;1.00
429;DHT22;201;48.758;9.290;2024-01-16T04:16:15;-2.60;1.00
429;DHT22;201;48.758;9.290;2024-01-16T04:18:42;-2.60;1.00
429;DHT22;201;48.758;9.290;2024-01-16T04:21:08;-2.70;1.00
429;DHT22;201;48.758;9.290;2024-01-16T04:23:34;-2.60;1.00
429;DHT22;201;48.758;9.290;2024-01-16T04:25:59;-2.70;1.00
429;DHT22;201;48.758;9.290;2024-01-16T04:28:25;-2.70;1.00
429;DHT22;201;48.758;9.290;2024-01-16T04:30:51;-2.70;1.00
429;DHT22;201;48.758;9.290;2024-01-16T04:33:16;-2.70;1.00
429;DHT22;201;48.758;9.290;2024-01-16T04:35:42;-2.70;1.00
429;DHT22;201;48.758;9.290;2024-01-16T04:38:08;-2.70;1.00
429;DHT22;201;48.758;9.290;2024-01-16T04:40:33;-2.70;1.00
429;DHT22;201;48.758;9.290;2024-01-16T04:43:00;-2.70;1.00
429;DHT22;201;48.758;9.290;2024-01-16T04:45:25;-2.80;1.00
429;DHT22;201;48.758;9.290;2024-01-16T04:47:51;-2.80;1.00
429;DHT22;201;48.758;9.290;2024-01-16T04:50:16;-2.70;1.00
429;DHT22;201;48.758;9.290;2024-01-16T04:52:42;-2.80;1.00
429;DHT22;201;48.758;9.290;2024-01-16T04:55:08;-2.80;1.00
429;DHT22;201;48.758;9.290;2024-01-16T04:57:34;-2.70;1.00
429;DHT22;201;48.758;9.290;2024-01-16T04:59:59;-2.70;1.00
429;DHT22;201;48.758;9.290;2024-01-16T05:02:25;-2.80;1.00
429;DHT22;201;48.758;9.290;2024-01-16T05:04:51;-2.70;1.00
429;DHT22;201;48.758;9.290;2024-01-16T05:07:18;-2.70;1.00
429;DHT22;201;48.758;9.290;2024-01-16T05:09:46;-2.70;1.00
429;DHT22;201;48.758;9.290;2024-01-16T05:12:12;-2.70;1.00
429;DHT22;201;48.758;9.290;2024-01-16T05:14:37;-2.70;1.00
429;DHT22;201;48.758;9.290;2024-01-16T05:17:03;-2.80;1.00
429;DHT22;201;48.758;9.290;2024-01-16T05:19:29;-2.80;1.00
429;DHT22;201;48.758;9.290;2024-01-16T05:21:54;-2.90;1.00
429;DHT22;201;48.758;9.290;2024-01-16T05:24:20;-2.90;1.00
429;DHT22;201;48.758;9.290;2024-01-16T05:26:45;-3.00;1.00
429;DHT22;201;48.758;9.290;2024-01-16T05:29:11;-3.00;1.00
429;DHT22;201;48.758;9.290;2024-01-16T05:31:41;-3.00;1.00
429;DHT22;201;48.758;9.290;2024-01-16T05:34:07;-3.10;1.00
429;DHT22;201;48.758;9.290;2024-01-16T05:36:33;-3.20;1.00
429;DHT22;201;48.758;9.290;2024-01-16T05:38:58;-3.20;1.00
429;DHT22;201;48.758;9.290;2024-01-16T05:41:24;-3.10;1.00
429;DHT22;201;48.758;9.290;2024-01-16T05:43:49;-3.10;1.00
429;DHT22;201;48.758;9.290;2024-01-16T05:46:15;-3.10;1.00
429;DHT22;201;48.758;9.290;2024-01-16T05:48:40;-3.00;1.00
429;DHT22;201;48.758;9.290;2024-01-16T05:51:06;-3.00;1.00
429;DHT22;201;48.758;9.290;2024-01-16T05:53:31;-3.00;1.00
429;DHT22;201;48.758;9.290;2024-01-16T05:55:57;-3.10;1.00
429;DHT22;201;48.758;9.290;2024-01-16T05:58:22;-3.10;1.00
429;DHT22;201;48.758;9.290;2024-01-16T06:00:48;-3.10;1.00
429;DHT22;201;48.758;9.290;2024-01-16T06:03:14;-3.00;1.00
429;DHT22;201;48.758;9.290;2024-01-16T06:05:39;-3.00;1.00
429;DHT22;201;48.758;9.290;2024-01-16T06:08:05;-3.00;1.00
429;DHT22;201;48.758;9.290;2024-01-16T06:10:31;-3.10;1.00
429;DHT22;201;48.758;9.290;2024-01-16T06:12:56;-3.10;1.00
429;DHT22;201;48.758;9.290;2024-01-16T06:15:22;-3.10;1.00
429;DHT22;201;48.758;9.290;2024-01-16T06:17:48;-3.10;1.00
429;DHT22;201;48.758;9.290;2024-01-16T06:20:14;-3.10;1.00
429;DHT22;201;48.758;9.290;2024-01-16T06:22:39;-3.00;1.00
429;DHT22;201;48.758;9.290;2024-01-16T06:25:05;-3.00;1.00
429;DHT22;201;48.758;9.290;2024-01-16T06:27:31;-2.90;1.00
429;DHT22;201;48.758;9.290;2024-01-16T06:29:58;-2.80;1.00
429;DHT22;201;48.758;9.290;2024-01-16T06:32:23;-2.80;1.00
429;DHT22;201;48.758;9.290;2024-01-16T06:34:49;-2.80;1.00
429;DHT22;201;48.758;9.290;2024-01-16T06:37:14;-2.90;1.00
429;DHT22;201;48.758;9.290;2024-01-16T06:39:40;-2.90;1.00
429;DHT22;201;48.758;9.290;2024-01-16T06:42:05;-2.90;1.00
429;DHT22;201;48.758;9.290;2024-01-16T06:44:31;-2.80;1.00
429;DHT22;201;48.758;9.290;2024-01-16T06:46:57;-2.80;1.00
429;DHT22;201;48.758;9.290;2024-01-16T06:49:22;-2.80;1.00
429;DHT22;201;48.758;9.290;2024-01-16T06:51:48;-2.80;1.00
429;DHT22;201;48.758;9.290;2024-01-16T06:54:13;-2.80;1.00
429;DHT22;201;48.758;9.290;2024-01-16T06:56:39;-2.80;1.00
429;DHT22;201;48.758;9.290;2024-01-16T06:59:04;-2.80;1.00
429;DHT22;201;48.758;9.290;2024-01-16T07:01:30;-2.90;1.00
429;DHT22;201;48.758;9.290;2024-01-16T07:03:56;-2.90;1.00
429;DHT22;201;48.758;9.290;2024-01-16T07:06:21;-2.90;1.00
429;DHT22;201;48.758;9.290;2024-01-16T07:08:47;-2.90;1.00
429;DHT22;201;48.758;9.290;2024-01-16T07:11:12;-2.90;1.00
429;DHT22;201;48.758;9.290;2024-01-16T07:13:40;-2.90;1.00
429;DHT22;201;48.758;9.290;2024-01-16T07:16:09;-2.90;1.00
429;DHT22;201;48.758;9.290;2024-01-16T07:18:34;-2.80;1.00
429;DHT22;201;48.758;9.290;2024-01-16T07:21:00;-2.80;1.00
429;DHT22;201;48.758;9.290;2024-01-16T07:23:25;-2.80;1.00
429;DHT22;201;48.758;9.290;2024-01-16T07:25:51;-2.70;1.00
429;DHT22;201;48.758;9.290;2024-01-16T07:28:16;-2.70;1.00
429;DHT22;201;48.758;9.290;2024-01-16T07:30:42;-2.60;1.00
429;DHT22;201;48.758;9.290;2024-01-16T07:33:07;-2.60;1.00
429;DHT22;201;48.758;9.290;2024-01-16T07:35:33;-2.60;1.00
429;DHT22;201;48.758;9.290;2024-01-16T07:37:58;-2.60;1.00
429;DHT22;201;48.758;9.290;2024-01-16T07:40:24;-2.60;1.00
429;DHT22;201;48.758;9.290;2024-01-16T07:42:50;-2.60;1.00
429;DHT22;201;48.758;9.290;2024-01-16T07:45:15;-2.50;1.00
429;DHT22;201;48.758;9.290;2024-01-16T07:47:40;-2.50;1.00
429;DHT22;201;48.758;9.290;2024-01-16T07:50:07;-2.40;1.00
429;DHT22;201;48.758;9.290;2024-01-16T07:52:33;-2.30;1.00
429;DHT22;201;48.758;9.290;2024-01-16T07:54:58;-2.20;1.00
429;DHT22;201;48.758;9.290;2024-01-16T07:57:24;-2.10;1.00
429;DHT22;201;48.758;9.290;2024-01-16T07:59:49;-2.10;1.00
429;DHT22;201;48.758;9.290;2024-01-16T08:02:15;-2.10;1.00
429;DHT22;201;48.758;9.290;2024-01-16T08:04:40;-2.10;1.00
429;DHT22;201;48.758;9.290;2024-01-16T08:07:06;-2.00;1.00
429;DHT22;201;48.758;9.290;2024-01-16T08:09:32;-1.90;1.00
429;DHT22;201;48.758;9.290;2024-01-16T08:11:57;-1.90;1.00
429;DHT22;201;48.758;9.290;2024-01-16T08:14:23;-1.90;1.00
429;DHT22;201;48.758;9.290;2024-01-16T08:16:48;-1.80;1.00
429;DHT22;201;48.758;9.290;2024-01-16T08:19:14;-1.60;1.00
429;DHT22;201;48.758;9.290;2024-01-16T08:21:40;-1.50;1.00
429;DHT22;201;48.758;9.290;2024-01-16T08:24:05;-1.50;1.00
429;DHT22;201;48.758;9.290;2024-01-16T08:26:31;-1.40;1.00
429;DHT22;201;48.758;9.290;2024-01-16T08:28:58;-1.40;1.00
429;DHT22;201;48.758;9.290;2024-01-16T08:31:23;-1.30;1.00
429;DHT22;201;48.758;9.290;2024-01-16T08:33:49;-1.40;1.00
429;DHT22;201;48.758;9.290;2024-01-16T08:36:14;-1.30;1.00
429;DHT22;201;48.758;9.290;2024-01-16T08:38:40;-1.20;1.00
429;DHT22;201;48.758;9.290;2024-01-16T08:41:06;-1.10;1.00
429;DHT22;201;48.758;9.290;2024-01-16T08:43:35;-1.10;1.00
429;DHT22;201;48.758;9.290;2024-01-16T08:46:01;-1.10;1.00
429;DHT22;201;48.758;9.290;2024-01-16T08:48:26;-1.20;1.00
429;DHT22;201;48.758;9.290;2024-01-16T08:50:52;-1.20;1.00
429;DHT22;201;48.758;9.290;2024-01-16T08:53:19;-1.30;1.00
429;DHT22;201;48.758;9.290;2024-01-16T08:55:45;-1.30;1.00
429;DHT22;201;48.758;9.290;2024-01-16T08:58:11;-1.30;1.00
429;DHT22;201;48.758;9.290;2024-01-16T09:00:36;-1.20;1.00
429;DHT22;201;48.758;9.290;2024-01-16T09:03:03;-1.30;1.00
429;DHT22;201;48.758;9.290;2024-01-16T09:05:29;-1.30;1.00
429;DHT22;201;48.758;9.290;2024-01-16T09:07:55;-1.30;1.00
429;DHT22;201;48.758;9.290;2024-01-16T09:10:20;-1.20;1.00
429;DHT22;201;48.758;9.290;2024-01-16T09:12:46;-1.20;1.00
429;DHT22;201;48.758;9.290;2024-01-16T09:15:11;-1.10;1.00
429;DHT22;201;48.758;9.290;2024-01-16T09:17:37;-1.00;1.00
429;DHT22;201;48.758;9.290;2024-01-16T09:20:05;-0.90;1.00
429;DHT22;201;48.758;9.290;2024-01-16T09:22:31;-0.80;1.00
429;DHT22;201;48.758;9.290;2024-01-16T09:24:57;-0.60;1.00
429;DHT22;201;48.758;9.290;2024-01-16T09:27:22;-0.50;1.00
429;DHT22;201;48.758;9.290;2024-01-16T09:29:47;-0.40;1.00
429;DHT22;201;48.758;9.290;2024-01-16T09:32:14;-0.40;1.00
429;DHT22;201;48.758;9.290;2024-01-16T09:34:40;-0.20;1.00
429;DHT22;201;48.758;9.290;2024-01-16T09:37:05;-0.20;1.00
429;DHT22;201;48.758;9.290;2024-01-16T09:39:31;-0.10;1.00
429;DHT22;201;48.758;9.290;2024-01-16T09:41:59;0.10;1.00
429;DHT22;201;48.758;9.290;2024-01-16T09:44:27;0.20;1.00
429;DHT22;201;48.758;9.290;2024-01-16T09:46:55;0.30;1.00
429;DHT22;201;48.758;9.290;2024-01-16T09:49:21;0.30;1.00
429;DHT22;201;48.758;9.290;2024-01-16T09:51:48;0.30;1.00
429;DHT22;201;48.758;9.290;2024-01-16T09:54:14;0.30;1.00
429;DHT22;201;48.758;9.290;2024-01-16T09:56:42;0.40;1.00
429;DHT22;201;48.758;9.290;2024-01-16T09:59:15;0.40;1.00
429;DHT22;201;48.758;9.290;2024-01-16T10:01:42;0.50;1.00
429;DHT22;201;48.758;9.290;2024-01-16T10:04:08;0.70;1.00
429;DHT22;201;48.758;9.290;2024-01-16T10:06:34;0.70;1.00
429;DHT22;201;48.758;9.290;2024-01-16T10:09:02;1.00;1.00
429;DHT22;201;48.758;9.290;2024-01-16T10:11:28;1.30;1.00
429;DHT22;201;48.758;9.290;2024-01-16T10:13:54;1.40;1.00
429;DHT22;201;48.758;9.290;2024-01-16T10:16:20;1.50;1.00
429;DHT22;201;48.758;9.290;2024-01-16T10:18:47;1.40;1.00
429;DHT22;201;48.758;9.290;2024-01-16T10:21:22;1.30;1.00
429;DHT22;201;48.758;9.290;2024-01-16T10:23:48;1.40;1.00
429;DHT22;201;48.758;9.290;2024-01-16T10:26:14;1.40;1.00
429;DHT22;201;48.758;9.290;2024-01-16T10:28:41;1.40;1.00
429;DHT22;201;48.758;9.290;2024-01-16T10:31:08;1.40;1.00
429;DHT22;201;48.758;9.290;2024-01-16T10:33:34;1.50;1.00
429;DHT22;201;48.758;9.290;2024-01-16T10:36:10;1.50;1.00
429;DHT22;201;48.758;9.290;2024-01-16T10:38:36;1.50;1.00
429;DHT22;201;48.758;9.290;2024-01-16T10:41:06;1.70;1.00
429;DHT22;201;48.758;9.290;2024-01-16T10:43:32;1.90;1.00
429;DHT22;201;48.758;9.290;2024-01-16T10:46:11;2.00;1.00
429;DHT22;201;48.758;9.290;2024-01-16T10:48:38;2.30;1.00
429;DHT22;201;48.758;9.290;2024-01-16T10:51:06;2.50;1.00
429;DHT22;201;48.758;9.290;2024-01-16T10:53:33;2.60;1.00
429;DHT22;201;48.758;9.290;2024-01-16T10:56:01;2.70;1.00
429;DHT22;201;48.758;9.290;2024-01-16T10:58:29;2.90;1.00
429;DHT22;201;48.758;9.290;2024-01-16T11:00:57;2.90;1.00
429;DHT22;201;48.758;9.290;2024-01-16T11:03:35;3.00;1.00
429;DHT22;201;48.758;9.290;2024-01-16T11:06:05;2.90;1.00
429;DHT22;201;48.758;9.290;2024-01-16T11:08:32;2.70;1.00
429;DHT22;201;48.758;9.290;2024-01-16T11:11:02;2.40;1.00
429;DHT22;201;48.758;9.290;2024-01-16T11:13:32;2.10;1.00
429;DHT22;201;48.758;9.290;2024-01-16T11:15:59;2.00;1.00
429;DHT22;201;48.758;9.290;2024-01-16T11:18:25;1.90;1.00
429;DHT22;201;48.758;9.290;2024-01-16T11:20:52;1.80;1.00
429;DHT22;201;48.758;9.290;2024-01-16T11:23:18;1.70;1.00
429;DHT22;201;48.758;9.290;2024-01-16T11:25:43;1.50;1.00
429;DHT22;201;48.758;9.290;2024-01-16T11:28:10;1.60;1.00
429;DHT22;201;48.758;9.290;2024-01-16T11:30:37;1.90;1.00
429;DHT22;201;48.758;9.290;2024-01-16T11:33:03;2.00;1.00
429;DHT22;201;48.758;9.290;2024-01-16T11:35:33;2.30;1.00
429;DHT22;201;48.758;9.290;2024-01-16T11:38:11;2.40;1.00
429;DHT22;201;48.758;9.290;2024-01-16T11:40:39;2.40;1.00
429;DHT22;201;48.758;9.290;2024-01-16T11:46:06;2.10;1.00
429;DHT22;201;48.758;9.290;2024-01-16T11:48:36;1.90;1.00
429;DHT22;201;48.758;9.290;2024-01-16T11:51:23;1.80;1.00
429;DHT22;201;48.758;9.290;2024-01-16T11:53:49;1.50;1.00
429;DHT22;201;48.758;9.290;2024-01-16T11:59:47;1.60;1.00
429;DHT22;201;48.758;9.290;2024-01-16T12:02:23;1.70;1.00
429;DHT22;201;48.758;9.290;2024-01-16T12:04:53;1.60;1.00
429;DHT22;201;48.758;9.290;2024-01-16T12:07:24;1.60;1.00
429;DHT22;201;48.758;9.290;2024-01-16T12:09:49;1.60;1.00
429;DHT22;201;48.758;9.290;2024-01-16T12:12:15;1.60;1.00
429;DHT22;201;48.758;9.290;2024-01-16T12:14:51;1.60;1.00
429;DHT22;201;48.758;9.290;2024-01-16T12:17:19;1.70;1.00
429;DHT22;201;48.758;9.290;2024-01-16T12:19:46;1.80;1.00
429;DHT22;201;48.758;9.290;2024-01-16T12:22:15;1.80;1.00
429;DHT22;201;48.758;9.290;2024-01-16T12:24:43;1.90;1.00
429;DHT22;201;48.758;9.290;2024-01-16T12:27:10;2.00;1.00
429;DHT22;201;48.758;9.290;2024-01-16T12:29:36;2.10;1.00
429;DHT22;201;48.758;9.290;2024-01-16T12:32:09;2.20;1.00
429;DHT22;201;48.758;9.290;2024-01-16T12:34:38;2.30;1.00
429;DHT22;201;48.758;9.290;2024-01-16T12:37:08;2.30;1.00
429;DHT22;201;48.758;9.290;2024-01-16T12:39:34;2.20;1.00
429;DHT22;201;48.758;9.290;2024-01-16T12:42:01;2.20;1.00
429;DHT22;201;48.758;9.290;2024-01-16T12:44:28;2.30;1.00
429;DHT22;201;48.758;9.290;2024-01-16T12:46:54;2.50;1.00
429;DHT22;201;48.758;9.290;2024-01-16T12:49:21;2.50;1.00
429;DHT22;201;48.758;9.290;2024-01-16T12:51:47;2.60;1.00
429;DHT22;201;48.758;9.290;2024-01-16T12:54:14;2.70;1.00
429;DHT22;201;48.758;9.290;2024-01-16T12:56:40;2.60;1.00
429;DHT22;201;48.758;9.290;2024-01-16T12:59:13;2.50;1.00
429;DHT22;201;48.758;9.290;2024-01-16T13:01:43;2.70;1.00
429;DHT22;201;48.758;9.290;2024-01-16T13:04:10;2.80;1.00
429;DHT22;201;48.758;9.290;2024-01-16T13:06:35;2.70;1.00
429;DHT22;201;48.758;9.290;2024-01-16T13:09:22;2.90;1.00
429;DHT22;201;48.758;9.290;2024-01-16T13:11:49;2.90;1.00
429;DHT22;201;48.758;9.290;2024-01-16T13:14:16;2.70;1.00
429;DHT22;201;48.758;9.290;2024-01-16T13:16:41;2.60;1.00
429;DHT22;201;48.758;9.290;2024-01-16T13:19:07;2.50;1.00
429;DHT22;201;48.758;9.290;2024-01-16T13:21:35;2.40;1.00
429;DHT22;201;48.758;9.290;2024-01-16T13:24:03;2.40;1.00
429;DHT22;201;48.758;9.290;2024-01-16T13:26:29;2.30;1.00
429;DHT22;201;48.758;9.290;2024-01-16T13:28:54;2.40;1.00
429;DHT22;201;48.758;9.290;2024-01-16T13:31:20;2.50;1.00
429;DHT22;201;48.758;9.290;2024-01-16T13:33:45;2.60;1.00
429;DHT22;201;48.758;9.290;2024-01-16T13:36:10;2.70;1.00
429;DHT22;201;48.758;9.290;2024-01-16T13:38:37;2.90;1.00
429;DHT22;201;48.758;9.290;2024-01-16T13:41:02;3.00;1.00
429;DHT22;201;48.758;9.290;2024-01-16T13:43:28;3.10;1.00
429;DHT22;201;48.758;9.290;2024-01-16T13:45:54;3.10;1.00
429;DHT22;201;48.758;9.290;2024-01-16T13:48:20;3.10;1.00
429;DHT22;201;48.758;9.290;2024-01-16T13:50:46;3.10;1.00
429;DHT22;201;48.758;9.290;2024-01-16T13:53:12;3.10;1.00
429;DHT22;201;48.758;9.290;2024-01-16T13:55:40;3.10;1.00
429;DHT22;201;48.758;9.290;2024-01-16T13:58:07;3.10;1.00
429;DHT22;201;48.758;9.290;2024-01-16T14:00:33;3.20;1.00
429;DHT22;201;48.758;9.290;2024-01-16T14:02:59;3.20;1.00
429;DHT22;201;48.758;9.290;2024-01-16T14:05:24;2.90;1.00
429;DHT22;201;48.758;9.290;2024-01-16T14:07:52;2.90;1.00
429;DHT22;201;48.758;9.290;2024-01-16T14:10:18;2.80;1.00
429;DHT22;201;48.758;9.290;2024-01-16T14:12:46;2.80;1.00
429;DHT22;201;48.758;9.290;2024-01-16T14:15:12;2.60;1.00
429;DHT22;201;48.758;9.290;2024-01-16T14:17:52;2.50;1.00
429;DHT22;201;48.758;9.290;2024-01-16T14:20:19;2.40;1.00
429;DHT22;201;48.758;9.290;2024-01-16T14:22:54;2.40;1.00
429;DHT22;201;48.758;9.290;2024-01-16T14:25:20;2.30;1.00
429;DHT22;201;48.758;9.290;2024-01-16T14:27:55;2.20;1.00
429;DHT22;201;48.758;9.290;2024-01-16T14:30:21;2.10;1.00
429;DHT22;201;48.758;9.290;2024-01-16T14:32:46;2.00;1.00
429;DHT22;201;48.758;9.290;2024-01-16T14:35:14;1.90;1.00
429;DHT22;201;48.758;9.290;2024-01-16T14:37:43;1.90;1.00
429;DHT22;201;48.758;9.290;2024-01-16T14:40:09;1.80;1.00
429;DHT22;201;48.758;9.290;2024-01-16T14:42:51;1.80;1.00
429;DHT22;201;48.758;9.290;2024-01-16T14:45:19;1.70;1.00
429;DHT22;201;48.758;9.290;2024-01-16T14:47:44;1.80;1.00
429;DHT22;201;48.758;9.290;2024-01-16T14:50:11;1.90;1.00
429;DHT22;201;48.758;9.290;2024-01-16T14:52:38;2.10;1.00
429;DHT22;201;48.758;9.290;2024-01-16T14:55:04;3.00;1.00
429;DHT22;201;48.758;9.290;2024-01-16T14:57:33;3.90;1.00
429;DHT22;201;48.758;9.290;2024-01-16T15:00:04;5.00;1.00
429;DHT22;201;48.758;9.290;2024-01-16T15:02:30;6.00;1.00
429;DHT22;201;48.758;9.290;2024-01-16T15:04:55;6.60;1.00
429;DHT22;201;48.758;9.290;2024-01-16T15:07:21;6.80;1.00
429;DHT22;201;48.758;9.290;2024-01-16T15:09:46;6.50;1.00
429;DHT22;201;48.758;9.290;2024-01-16T15:12:12;5.90;1.00
429;DHT22;201;48.758;9.290;2024-01-16T15:14:38;5.50;1.00
429;DHT22;201;48.758;9.290;2024-01-16T15:17:04;6.00;1.00
429;DHT22;201;48.758;9.290;2024-01-16T15:19:29;6.10;1.00
429;DHT22;201;48.758;9.290;2024-01-16T15:21:55;6.00;1.00
429;DHT22;201;48.758;9.290;2024-01-16T15:24:21;5.30;1.00
429;DHT22;201;48.758;9.290;2024-01-16T15:26:54;4.70;1.00
429;DHT22;201;48.758;9.290;2024-01-16T15:29:19;3.90;1.00
429;DHT22;201;48.758;9.290;2024-01-16T15:31:45;3.40;1.00
429;DHT22;201;48.758;9.290;2024-01-16T15:34:11;2.90;1.00
429;DHT22;201;48.758;9.290;2024-01-16T15:36:37;2.40;1.00
429;DHT22;201;48.758;9.290;2024-01-16T15:39:02;2.10;1.00
429;DHT22;201;48.758;9.290;2024-01-16T15:41:29;1.80;1.00
429;DHT22;201;48.758;9.290;2024-01-16T15:43:54;1.50;1.00
429;DHT22;201;48.758;9.290;2024-01-16T15:46:20;1.30;1.00
429;DHT22;201;48.758;9.290;2024-01-16T15:48:45;1.00;1.00
429;DHT22;201;48.758;9.290;2024-01-16T15:51:11;0.80;1.00
429;DHT22;201;48.758;9.290;2024-01-16T15:53:36;0.50;1.00
429;DHT22;201;48.758;9.290;2024-01-16T15:56:03;0.20;1.00
429;DHT22;201;48.758;9.290;2024-01-16T15:58:31;0.10;1.00
429;DHT22;201;48.758;9.290;2024-01-16T16:00:58;-0.10;1.00
429;DHT22;201;48.758;9.290;2024-01-16T16:03:23;-0.10;1.00
429;DHT22;201;48.758;9.290;2024-01-16T16:05:48;-0.40;1.00
429;DHT22;201;48.758;9.290;2024-01-16T16:08:14;-0.50;1.00
429;DHT22;201;48.758;9.290;2024-01-16T16:10:40;-0.60;1.00
429;DHT22;201;48.758;9.290;2024-01-16T16:13:07;-0.70;1.00
429;DHT22;201;48.758;9.290;2024-01-16T16:15:34;-0.70;1.00
429;DHT22;201;48.758;9.290;2024-01-16T16:18:00;-0.80;1.00
429;DHT22;201;48.758;9.290;2024-01-16T16:20:25;-0.80;1.00
429;DHT22;201;48.758;9.290;2024-01-16T16:22:51;-0.90;1.00
429;DHT22;201;48.758;9.290;2024-01-16T16:25:17;-1.00;1.00
429;DHT22;201;48.758;9.290;2024-01-16T16:27:43;-1.10;1.00
429;DHT22;201;48.758;9.290;2024-01-16T16:30:09;-1.10;1.00
429;DHT22;201;48.758;9.290;2024-01-16T16:32:36;-1.10;1.00
429;DHT22;201;48.758;9.290;2024-01-16T16:35:02;-1.10;1.00
429;DHT22;201;48.758;9.290;2024-01-16T16:37:28;-1.10;1.00
429;DHT22;201;48.758;9.290;2024-01-16T16:39:53;-1.10;1.00
429;DHT22;201;48.758;9.290;2024-01-16T16:42:19;-1.20;1.00
429;DHT22;201;48.758;9.290;2024-01-16T16:44:45;-1.30;1.00
429;DHT22;201;48.758;9.290;2024-01-16T16:47:11;-1.40;1.00
429;DHT22;201;48.758;9.290;2024-01-16T16:49:37;-1.40;1.00
429;DHT22;201;48.758;9.290;2024-01-16T16:52:04;-1.40;1.00
429;DHT22;201;48.758;9.290;2024-01-16T16:54:30;-1.50;1.00
429;DHT22;201;48.758;9.290;2024-01-16T16:56:56;-1.50;1.00
429;DHT22;201;48.758;9.290;2024-01-16T16:59:22;-1.40;1.00